sensor_id;sensor_type;location;lat;lon;timestamp;pressure;altitude;pressure_sealevel;temperature;humidity
55010;BME280;40903;51.638;7.528;2023-12-22T00:00:29;99374.25;;;6.05;100.00
55010;BME280;40903;51.638;7.528;2023-12-22T00:02:55;99363.22;;;6.01;100.00
55010;BME280;40903;51.638;7.528;2023-12-22T00:05:20;99361.41;;;5.97;100.00
55010;BME280;40903;51.638;7.528;2023-12-22T00:07:46;99370.59;;;5.96;100.00
55010;BME280;40903;51.638;7.528;2023-12-22T00:10:11;99387.94;;;5.95;100.00
55010;BME280;40903;51.638;7.528;2023-12-22T00:12:37;99385.59;;;5.88;100.00
55010;BME280;40903;51.638;7.528;2023-12-22T00:15:04;99389.41;;;5.87;100.00
55010;BME280;40903;51.638;7.528;2023-12-22T00:17:30;99387.78;;;5.86;100.00
55010;BME280;40903;51.638;7.528;2023-12-22T00:19:56;99396.25;;;5.80;100.00
55010;BME280;40903;51.638;7.528;2023-12-22T00:22:24;99406.00;;;5.76;100.00
55010;BME280;40903;51.638;7.528;2023-12-22T00:24:51;99402.00;;;5.73;100.00
55010;BME280;40903;51.638;7.528;2023-12-22T00:27:16;99401.75;;;5.70;100.00
55010;BME280;40903;51.638;7.528;2023-12-22T00:29:42;99400.94;;;5.69;100.00
55010;BME280;40903;51.638;7.528;2023-12-22T00:32:07;99411.56;;;5.66;100.00
55010;BME280;40903;51.638;7.528;2023-12-22T00:34:35;99411.84;;;5.65;100.00
55010;BME280;40903;51.638;7.528;2023-12-22T00:37:00;99415.91;;;5.62;100.00
55010;BME280;40903;51.638;7.528;2023-12-22T00:39:26;99414.03;;;5.63;100.00
55010;BME280;40903;51.638;7.528;2023-12-22T00:41:51;99420.03;;;5.60;100.00
55010;BME280;40903;51.638;7.528;2023-12-22T00:44:17;99423.25;;;5.62;100.00
55010;BME280;40903;51.638;7.528;2023-12-22T00:46:43;99423.50;;;5.60;100.00
55010;BME280;40903;51.638;7.528;2023-12-22T00:49:08;99424.09;;;5.57;100.00
55010;BME280;40903;51.638;7.528;2023-12-22T00:51:34;99434.41;;;5.55;100.00
55010;BME280;40903;51.638;7.528;2023-12-22T00:53:59;99430.09;;;5.54;100.00
55010;BME280;40903;51.638;7.528;2023-12-22T00:56:25;99433.56;;;5.55;100.00
55010;BME280;40903;51.638;7.528;2023-12-22T00:58:50;99416.56;;;5.54;100.00
55010;BME280;40903;51.638;7.528;2023-12-22T01:01:16;99413.28;;;5.57;100.00
55010;BME280;40903;51.638;7.528;2023-12-22T01:03:41;99404.94;;;5.54;100.00
55010;BME280;40903;51.638;7.528;2023-12-22T01:06:07;99414.38;;;5.56;100.00
55010;BME280;40903;51.638;7.528;2023-12-22T01:08:32;99426.81;;;5.57;100.00
55010;BME280;40903;51.638;7.528;2023-12-22T01:10:58;99429.78;;;5.56;100.00
55010;BME280;40903;51.638;7.528;2023-12-22T01:13:23;99445.47;;;5.54;100.00
55010;BME280;40903;51.638;7.528;2023-12-22T01:15:49;99447.16;;;5.50;100.00
55010;BME280;40903;51.638;7.528;2023-12-22T01:18:15;99444.72;;;5.48;100.00
55010;BME280;40903;51.638;7.528;2023-12-22T01:20:41;99442.63;;;5.45;100.00
55010;BME280;40903;51.638;7.528;2023-12-22T01:23:06;99435.31;;;5.46;100.00
55010;BME280;40903;51.638;7.528;2023-12-22T01:25:32;99442.63;;;5.45;100.00
55010;BME280;40903;51.638;7.528;2023-12-22T01:27:57;99443.19;;;5.42;100.00
55010;BME280;40903;51.638;7.528;2023-12-22T01:30:25;99446.19;;;5.41;100.00
55010;BME280;40903;51.638;7.528;2023-12-22T01:32:50;99428.91;;;5.42;100.00
55010;BME280;40903;51.638;7.528;2023-12-22T01:35:16;99456.72;;;5.42;100.00
55010;BME280;40903;51.638;7.528;2023-12-22T01:37:41;99463.97;;;5.47;100.00
55010;BME280;40903;51.638;7.528;2023-12-22T01:40:07;99459.31;;;5.52;100.00
55010;BME280;40903;51.638;7.528;2023-12-22T01:42:33;99463.78;;;5.62;100.00
55010;BME280;40903;51.638;7.528;2023-12-22T01:44:59;99456.47;;;5.62;100.00
55010;BME280;40903;51.638;7.528;2023-12-22T01:47:24;99463.97;;;5.70;100.00
55010;BME280;40903;51.638;7.528;2023-12-22T01:49:50;99458.28;;;5.72;100.00
55010;BME280;40903;51.638;7.528;2023-12-22T01:52:17;99464.19;;;5.73;100.00
55010;BME280;40903;51.638;7.528;2023-12-22T01:54:44;99458.47;;;5.75;100.00
55010;BME280;40903;51.638;7.528;2023-12-22T01:57:12;99457.88;;;5.78;100.00
55010;BME280;40903;51.638;7.528;2023-12-22T01:59:39;99467.38;;;5.80;100.00
55010;BME280;40903;51.638;7.528;2023-12-22T02:02:04;99468.47;;;5.79;100.00
55010;BME280;40903;51.638;7.528;2023-12-22T02:04:30;99478.41;;;5.84;100.00
55010;BME280;40903;51.638;7.528;2023-12-22T02:07:01;99464.59;;;5.85;100.00
55010;BME280;40903;51.638;7.528;2023-12-22T02:09:27;99469.28;;;5.80;100.00
55010;BME280;40903;51.638;7.528;2023-12-22T02:11:53;99476.31;;;5.76;100.00
55010;BME280;40903;51.638;7.528;2023-12-22T02:14:18;99463.06;;;5.79;100.00
55010;BME280;40903;51.638;7.528;2023-12-22T02:17:11;99460.09;;;5.76;100.00
55010;BME280;40903;51.638;7.528;2023-12-22T02:19:42;99462.00;;;5.75;100.00
55010;BME280;40903;51.638;7.528;2023-12-22T02:22:09;99447.66;;;5.75;100.00
55010;BME280;40903;51.638;7.528;2023-12-22T02:24:35;99457.38;;;5.76;100.00
55010;BME280;40903;51.638;7.528;2023-12-22T02:27:27;99462.78;;;5.76;100.00
55010;BME280;40903;51.638;7.528;2023-12-22T02:32:43;99466.00;;;5.78;100.00
55010;BME280;40903;51.638;7.528;2023-12-22T02:35:15;99473.59;;;5.81;100.00
55010;BME280;40903;51.638;7.528;2023-12-22T02:37:42;99485.50;;;5.80;100.00
55010;BME280;40903;51.638;7.528;2023-12-22T02:40:11;99480.88;;;5.80;100.00
55010;BME280;40903;51.638;7.528;2023-12-22T02:42:38;99484.41;;;5.81;100.00
55010;BME280;40903;51.638;7.528;2023-12-22T02:45:05;99474.44;;;5.76;100.00
55010;BME280;40903;51.638;7.528;2023-12-22T02:47:31;99469.81;;;5.77;100.00
55010;BME280;40903;51.638;7.528;2023-12-22T02:49:59;99475.53;;;5.75;100.00
55010;BME280;40903;51.638;7.528;2023-12-22T02:52:25;99472.00;;;5.75;100.00
55010;BME280;40903;51.638;7.528;2023-12-22T02:54:50;99477.91;;;5.77;100.00
55010;BME280;40903;51.638;7.528;2023-12-22T02:57:16;99479.00;;;5.76;100.00
55010;BME280;40903;51.638;7.528;2023-12-22T02:59:41;99489.03;;;5.75;100.00
55010;BME280;40903;51.638;7.528;2023-12-22T03:02:07;99498.53;;;5.73;100.00
55010;BME280;40903;51.638;7.528;2023-12-22T03:04:32;99503.16;;;5.72;100.00
55010;BME280;40903;51.638;7.528;2023-12-22T03:06:58;99504.97;;;5.77;100.00
55010;BME280;40903;51.638;7.528;2023-12-22T03:09:23;99499.31;;;5.78;100.00
55010;BME280;40903;51.638;7.528;2023-12-22T03:11:49;99494.94;;;5.82;100.00
55010;BME280;40903;51.638;7.528;2023-12-22T03:14:17;99506.25;;;5.84;100.00
55010;BME280;40903;51.638;7.528;2023-12-22T03:16:42;99508.19;;;5.84;100.00
55010;BME280;40903;51.638;7.528;2023-12-22T03:19:08;99497.59;;;5.87;100.00
55010;BME280;40903;51.638;7.528;2023-12-22T03:21:33;99507.81;;;5.90;100.00
55010;BME280;40903;51.638;7.528;2023-12-22T03:23:59;99509.19;;;5.88;100.00
55010;BME280;40903;51.638;7.528;2023-12-22T03:26:26;99519.22;;;5.87;100.00
55010;BME280;40903;51.638;7.528;2023-12-22T03:28:53;99540.88;;;5.87;100.00
55010;BME280;40903;51.638;7.528;2023-12-22T03:31:18;99528.72;;;5.85;100.00
55010;BME280;40903;51.638;7.528;2023-12-22T03:33:47;99517.38;;;5.83;100.00
55010;BME280;40903;51.638;7.528;2023-12-22T03:36:12;99520.59;;;5.85;100.00
55010;BME280;40903;51.638;7.528;2023-12-22T03:38:38;99508.44;;;5.82;100.00
55010;BME280;40903;51.638;7.528;2023-12-22T03:41:03;99508.25;;;5.79;100.00
55010;BME280;40903;51.638;7.528;2023-12-22T03:43:29;99513.84;;;5.82;100.00
55010;BME280;40903;51.638;7.528;2023-12-22T03:45:56;99499.03;;;5.80;100.00
55010;BME280;40903;51.638;7.528;2023-12-22T03:48:22;99509.28;;;5.78;100.00
55010;BME280;40903;51.638;7.528;2023-12-22T03:50:48;99519.31;;;5.77;100.00
55010;BME280;40903;51.638;7.528;2023-12-22T03:53:13;99509.28;;;5.78;100.00
55010;BME280;40903;51.638;7.528;2023-12-22T03:55:39;99519.06;;;5.74;100.00
55010;BME280;40903;51.638;7.528;2023-12-22T03:58:05;99518.09;;;5.65;100.00
55010;BME280;40903;51.638;7.528;2023-12-22T04:00:33;99516.28;;;5.56;100.00
55010;BME280;40903;51.638;7.528;2023-12-22T04:02:59;99515.78;;;5.54;100.00
55010;BME280;40903;51.638;7.528;2023-12-22T04:05:24;99522.28;;;5.53;100.00
55010;BME280;40903;51.638;7.528;2023-12-22T04:07:50;99525.84;;;5.48;100.00
55010;BME280;40903;51.638;7.528;2023-12-22T04:10:19;99525.03;;;5.48;100.00
55010;BME280;40903;51.638;7.528;2023-12-22T04:12:44;99515.31;;;5.47;100.00
55010;BME280;40903;51.638;7.528;2023-12-22T04:15:10;99512.63;;;5.47;100.00
55010;BME280;40903;51.638;7.528;2023-12-22T04:17:36;99517.22;;;5.46;100.00
55010;BME280;40903;51.638;7.528;2023-12-22T04:20:02;99512.88;;;5.45;100.00
55010;BME280;40903;51.638;7.528;2023-12-22T04:22:27;99500.19;;;5.46;100.00
55010;BME280;40903;51.638;7.528;2023-12-22T04:24:53;99504.28;;;5.43;100.00
55010;BME280;40903;51.638;7.528;2023-12-22T04:27:18;99516.44;;;5.41;100.00
55010;BME280;40903;51.638;7.528;2023-12-22T04:29:44;99526.47;;;5.40;100.00
55010;BME280;40903;51.638;7.528;2023-12-22T04:32:09;99516.44;;;5.41;100.00
55010;BME280;40903;51.638;7.528;2023-12-22T04:34:35;99508.91;;;5.38;100.00
55010;BME280;40903;51.638;7.528;2023-12-22T04:37:00;99522.41;;;5.43;100.00
55010;BME280;40903;51.638;7.528;2023-12-22T04:39:25;99530.50;;;5.43;100.00
55010;BME280;40903;51.638;7.528;2023-12-22T04:41:51;99505.59;;;5.46;100.00
55010;BME280;40903;51.638;7.528;2023-12-22T04:44:17;99507.28;;;5.42;100.00
55010;BME280;40903;51.638;7.528;2023-12-22T04:46:42;99510.31;;;5.35;100.00
55010;BME280;40903;51.638;7.528;2023-12-22T04:49:08;99509.25;;;5.31;100.00
55010;BME280;40903;51.638;7.528;2023-12-22T04:51:34;99509.03;;;5.28;100.00
55010;BME280;40903;51.638;7.528;2023-12-22T04:53:59;99525.25;;;5.28;100.00
55010;BME280;40903;51.638;7.528;2023-12-22T04:56:26;99533.63;;;5.26;100.00
55010;BME280;40903;51.638;7.528;2023-12-22T04:58:52;99540.91;;;5.26;100.00
55010;BME280;40903;51.638;7.528;2023-12-22T05:01:17;99535.81;;;5.24;100.00
55010;BME280;40903;51.638;7.528;2023-12-22T05:03:43;99528.56;;;5.20;100.00
55010;BME280;40903;51.638;7.528;2023-12-22T05:06:09;99522.31;;;5.24;100.00
55010;BME280;40903;51.638;7.528;2023-12-22T05:08:34;99548.22;;;5.25;100.00
55010;BME280;40903;51.638;7.528;2023-12-22T05:11:00;99551.78;;;5.21;100.00
55010;BME280;40903;51.638;7.528;2023-12-22T05:13:29;99537.19;;;5.22;100.00
55010;BME280;40903;51.638;7.528;2023-12-22T05:15:54;99545.25;;;5.27;100.00
55010;BME280;40903;51.638;7.528;2023-12-22T05:18:20;99546.91;;;5.23;100.00
55010;BME280;40903;51.638;7.528;2023-12-22T05:20:46;99539.84;;;5.27;100.00
55010;BME280;40903;51.638;7.528;2023-12-22T05:23:11;99551.19;;;5.29;100.00
55010;BME280;40903;51.638;7.528;2023-12-22T05:25:37;99546.88;;;5.28;100.00
55010;BME280;40903;51.638;7.528;2023-12-22T05:28:03;99547.59;;;5.33;100.00
55010;BME280;40903;51.638;7.528;2023-12-22T05:30:28;99560.06;;;5.34;100.00
55010;BME280;40903;51.638;7.528;2023-12-22T05:32:54;99552.47;;;5.36;100.00
55010;BME280;40903;51.638;7.528;2023-12-22T05:35:20;99551.94;;;5.34;100.00
55010;BME280;40903;51.638;7.528;2023-12-22T05:37:46;99560.06;;;5.34;100.00
55010;BME280;40903;51.638;7.528;2023-12-22T05:40:13;99559.19;;;5.39;100.00
55010;BME280;40903;51.638;7.528;2023-12-22T05:42:39;99557.06;;;5.36;100.00
55010;BME280;40903;51.638;7.528;2023-12-22T05:45:05;99564.31;;;5.40;100.00
55010;BME280;40903;51.638;7.528;2023-12-22T05:47:32;99569.13;;;5.43;100.00
55010;BME280;40903;51.638;7.528;2023-12-22T05:49:58;99582.09;;;5.46;100.00
55010;BME280;40903;51.638;7.528;2023-12-22T05:52:24;99583.16;;;5.50;100.00
55010;BME280;40903;51.638;7.528;2023-12-22T05:54:50;99579.91;;;5.48;100.00
55010;BME280;40903;51.638;7.528;2023-12-22T05:57:15;99587.97;;;5.53;100.00
55010;BME280;40903;51.638;7.528;2023-12-22T05:59:42;99582.50;;;5.58;100.00
55010;BME280;40903;51.638;7.528;2023-12-22T06:02:08;99592.81;;;5.56;100.00
55010;BME280;40903;51.638;7.528;2023-12-22T06:04:33;99592.47;;;5.63;100.00
55010;BME280;40903;51.638;7.528;2023-12-22T06:07:00;99579.75;;;5.63;100.00
55010;BME280;40903;51.638;7.528;2023-12-22T06:09:28;99598.69;;;5.63;100.00
55010;BME280;40903;51.638;7.528;2023-12-22T06:11:54;99603.25;;;5.68;100.00
55010;BME280;40903;51.638;7.528;2023-12-22T06:14:19;99607.56;;;5.68;100.00
55010;BME280;40903;51.638;7.528;2023-12-22T06:16:45;99616.47;;;5.69;100.00
55010;BME280;40903;51.638;7.528;2023-12-22T06:19:10;99613.19;;;5.72;100.00
55010;BME280;40903;51.638;7.528;2023-12-22T06:21:38;99618.09;;;5.70;100.00
55010;BME280;40903;51.638;7.528;2023-12-22T06:24:04;99607.53;;;5.73;100.00
55010;BME280;40903;51.638;7.528;2023-12-22T06:26:30;99611.59;;;5.71;100.00
55010;BME280;40903;51.638;7.528;2023-12-22T06:28:56;99607.00;;;5.72;100.00
55010;BME280;40903;51.638;7.528;2023-12-22T06:31:21;99619.44;;;5.72;100.00
55010;BME280;40903;51.638;7.528;2023-12-22T06:33:53;99624.03;;;5.72;100.00
55010;BME280;40903;51.638;7.528;2023-12-22T06:36:22;99612.09;;;5.73;100.00
55010;BME280;40903;51.638;7.528;2023-12-22T06:38:48;99616.94;;;5.76;100.00
55010;BME280;40903;51.638;7.528;2023-12-22T06:41:28;99609.66;;;5.76;100.00
55010;BME280;40903;51.638;7.528;2023-12-22T06:43:55;99624.03;;;5.72;100.00
55010;BME280;40903;51.638;7.528;2023-12-22T06:46:22;99628.34;;;5.73;100.00
55010;BME280;40903;51.638;7.528;2023-12-22T06:48:48;99620.22;;;5.73;100.00
55010;BME280;40903;51.638;7.528;2023-12-22T06:51:20;99624.84;;;5.72;100.00
55010;BME280;40903;51.638;7.528;2023-12-22T06:53:47;99614.03;;;5.72;100.00
55010;BME280;40903;51.638;7.528;2023-12-22T06:56:24;99611.88;;;5.69;100.00
55010;BME280;40903;51.638;7.528;2023-12-22T06:58:52;99604.06;;;5.68;100.00
55010;BME280;40903;51.638;7.528;2023-12-22T07:01:38;99621.03;;;5.73;100.00
55010;BME280;40903;51.638;7.528;2023-12-22T07:04:04;99610.50;;;5.72;100.00
55010;BME280;40903;51.638;7.528;2023-12-22T07:06:31;99620.47;;;5.76;100.00
55010;BME280;40903;51.638;7.528;2023-12-22T07:11:38;99625.28;;;5.84;100.00
55010;BME280;40903;51.638;7.528;2023-12-22T07:14:04;99653.09;;;5.90;100.00
55010;BME280;40903;51.638;7.528;2023-12-22T07:16:29;99642.56;;;5.88;100.00
55010;BME280;40903;51.638;7.528;2023-12-22T07:18:55;99622.81;;;5.88;100.00
55010;BME280;40903;51.638;7.528;2023-12-22T07:21:20;99621.00;;;5.78;100.00
55010;BME280;40903;51.638;7.528;2023-12-22T07:23:46;99618.84;;;5.75;100.00
55010;BME280;40903;51.638;7.528;2023-12-22T07:26:12;99632.72;;;5.69;100.00
55010;BME280;40903;51.638;7.528;2023-12-22T07:28:37;99626.47;;;5.68;100.00
55010;BME280;40903;51.638;7.528;2023-12-22T07:31:03;99631.38;;;5.67;100.00
55010;BME280;40903;51.638;7.528;2023-12-22T07:33:29;99629.75;;;5.66;100.00
55010;BME280;40903;51.638;7.528;2023-12-22T07:35:55;99619.25;;;5.64;100.00
55010;BME280;40903;51.638;7.528;2023-12-22T07:38:20;99611.66;;;5.66;100.00
55010;BME280;40903;51.638;7.528;2023-12-22T07:40:46;99616.00;;;5.62;100.00
55010;BME280;40903;51.638;7.528;2023-12-22T07:43:12;99625.72;;;5.63;100.00
55010;BME280;40903;51.638;7.528;2023-12-22T07:45:41;99624.94;;;5.63;100.00
55010;BME280;40903;51.638;7.528;2023-12-22T07:48:07;99610.31;;;5.64;100.00
55010;BME280;40903;51.638;7.528;2023-12-22T07:50:33;99591.66;;;5.62;100.00
55010;BME280;40903;51.638;7.528;2023-12-22T07:52:58;99595.19;;;5.63;100.00
55010;BME280;40903;51.638;7.528;2023-12-22T07:55:24;99601.38;;;5.63;100.00
55010;BME280;40903;51.638;7.528;2023-12-22T07:57:50;99594.91;;;5.64;100.00
55010;BME280;40903;51.638;7.528;2023-12-22T08:00:16;99609.75;;;5.67;100.00
55010;BME280;40903;51.638;7.528;2023-12-22T08:02:42;99601.88;;;5.70;100.00
55010;BME280;40903;51.638;7.528;2023-12-22T08:05:08;99599.44;;;5.68;100.00
55010;BME280;40903;51.638;7.528;2023-12-22T08:07:34;99601.59;;;5.72;100.00
55010;BME280;40903;51.638;7.528;2023-12-22T08:10:00;99599.41;;;5.73;100.00
55010;BME280;40903;51.638;7.528;2023-12-22T08:12:27;99599.69;;;5.72;100.00
55010;BME280;40903;51.638;7.528;2023-12-22T08:14:53;99588.28;;;5.75;100.00
55010;BME280;40903;51.638;7.528;2023-12-22T08:17:18;99625.06;;;5.76;100.00
55010;BME280;40903;51.638;7.528;2023-12-22T08:19:44;99641.81;;;5.78;100.00
55010;BME280;40903;51.638;7.528;2023-12-22T08:22:10;99664.84;;;5.75;100.00
55010;BME280;40903;51.638;7.528;2023-12-22T08:24:36;99643.09;;;5.57;100.00
55010;BME280;40903;51.638;7.528;2023-12-22T08:27:01;99648.34;;;5.44;100.00
55010;BME280;40903;51.638;7.528;2023-12-22T08:29:27;99622.44;;;5.38;100.00
55010;BME280;40903;51.638;7.528;2023-12-22T08:31:53;99617.84;;;5.38;100.00
55010;BME280;40903;51.638;7.528;2023-12-22T08:34:19;99636.25;;;5.36;100.00
55010;BME280;40903;51.638;7.528;2023-12-22T08:36:44;99644.91;;;5.33;100.00
55010;BME280;40903;51.638;7.528;2023-12-22T08:39:10;99645.97;;;5.37;100.00
55010;BME280;40903;51.638;7.528;2023-12-22T08:41:35;99624.38;;;5.32;100.00
55010;BME280;40903;51.638;7.528;2023-12-22T08:44:06;99619.84;;;5.23;100.00
55010;BME280;40903;51.638;7.528;2023-12-22T08:46:31;99622.59;;;5.18;100.00
55010;BME280;40903;51.638;7.528;2023-12-22T08:48:57;99617.47;;;5.16;100.00
55010;BME280;40903;51.638;7.528;2023-12-22T08:51:28;99620.66;;;5.23;100.00
55010;BME280;40903;51.638;7.528;2023-12-22T08:53:54;99626.88;;;5.24;100.00
55010;BME280;40903;51.638;7.528;2023-12-22T08:56:24;99627.13;;;5.27;100.00
55010;BME280;40903;51.638;7.528;2023-12-22T08:58:54;99634.97;;;5.29;100.00
55010;BME280;40903;51.638;7.528;2023-12-22T09:01:24;99628.16;;;5.31;100.00
55010;BME280;40903;51.638;7.528;2023-12-22T09:03:50;99626.75;;;5.39;100.00
55010;BME280;40903;51.638;7.528;2023-12-22T09:06:17;99632.34;;;5.47;100.00
55010;BME280;40903;51.638;7.528;2023-12-22T09:08:44;99626.63;;;5.54;100.00
55010;BME280;40903;51.638;7.528;2023-12-22T09:11:11;99607.66;;;5.59;100.00
55010;BME280;40903;51.638;7.528;2023-12-22T09:13:37;99627.31;;;5.69;100.00
55010;BME280;40903;51.638;7.528;2023-12-22T09:16:03;99612.63;;;5.75;100.00
55010;BME280;40903;51.638;7.528;2023-12-22T09:18:28;99595.81;;;5.78;100.00
55010;BME280;40903;51.638;7.528;2023-12-22T09:20:54;99605.03;;;5.82;100.00
55010;BME280;40903;51.638;7.528;2023-12-22T09:23:19;99612.00;;;5.88;100.00
55010;BME280;40903;51.638;7.528;2023-12-22T09:25:46;99613.59;;;5.89;100.00
55010;BME280;40903;51.638;7.528;2023-12-22T09:28:13;99618.16;;;5.93;100.00
55010;BME280;40903;51.638;7.528;2023-12-22T09:30:39;99617.88;;;5.95;100.00
55010;BME280;40903;51.638;7.528;2023-12-22T09:33:04;99607.69;;;6.10;100.00
55010;BME280;40903;51.638;7.528;2023-12-22T09:35:30;99613.28;;;6.19;100.00
55010;BME280;40903;51.638;7.528;2023-12-22T09:37:55;99616.66;;;6.29;100.00
55010;BME280;40903;51.638;7.528;2023-12-22T09:40:21;99598.44;;;6.35;100.00
55010;BME280;40903;51.638;7.528;2023-12-22T09:42:50;99610.34;;;6.39;100.00
55010;BME280;40903;51.638;7.528;2023-12-22T09:45:19;99611.34;;;6.43;100.00
55010;BME280;40903;51.638;7.528;2023-12-22T09:47:46;99611.28;;;6.48;100.00
55010;BME280;40903;51.638;7.528;2023-12-22T09:50:13;99603.69;;;6.50;100.00
55010;BME280;40903;51.638;7.528;2023-12-22T09:52:44;99574.72;;;6.50;100.00
55010;BME280;40903;51.638;7.528;2023-12-22T09:55:12;99582.53;;;6.52;100.00
55010;BME280;40903;51.638;7.528;2023-12-22T09:57:38;99578.16;;;6.56;100.00
55010;BME280;40903;51.638;7.528;2023-12-22T10:00:08;99566.75;;;6.59;100.00
55010;BME280;40903;51.638;7.528;2023-12-22T10:02:34;99563.44;;;6.62;100.00
55010;BME280;40903;51.638;7.528;2023-12-22T10:05:03;99574.28;;;6.62;100.00
55010;BME280;40903;51.638;7.528;2023-12-22T10:07:30;99575.66;;;6.59;100.00
55010;BME280;40903;51.638;7.528;2023-12-22T10:09:57;99583.25;;;6.57;100.00
55010;BME280;40903;51.638;7.528;2023-12-22T10:12:24;99598.72;;;6.57;100.00
55010;BME280;40903;51.638;7.528;2023-12-22T10:14:51;99589.00;;;6.56;100.00
55010;BME280;40903;51.638;7.528;2023-12-22T10:17:17;99585.69;;;6.59;100.00
55010;BME280;40903;51.638;7.528;2023-12-22T10:19:43;99584.09;;;6.58;100.00
55010;BME280;40903;51.638;7.528;2023-12-22T10:22:08;99583.50;;;6.61;100.00
55010;BME280;40903;51.638;7.528;2023-12-22T10:24:47;99563.44;;;6.62;100.00
55010;BME280;40903;51.638;7.528;2023-12-22T10:27:13;99575.66;;;6.59;100.00
55010;BME280;40903;51.638;7.528;2023-12-22T10:29:39;99554.53;;;6.61;100.00
55010;BME280;40903;51.638;7.528;2023-12-22T10:32:06;99570.78;;;6.61;100.00
55010;BME280;40903;51.638;7.528;2023-12-22T10:34:32;99558.63;;;6.59;100.00
55010;BME280;40903;51.638;7.528;2023-12-22T10:37:00;99537.75;;;6.59;100.00
55010;BME280;40903;51.638;7.528;2023-12-22T10:39:30;99527.72;;;6.60;100.00
55010;BME280;40903;51.638;7.528;2023-12-22T10:41:57;99519.81;;;6.63;100.00
55010;BME280;40903;51.638;7.528;2023-12-22T10:44:26;99531.69;;;6.67;100.00
55010;BME280;40903;51.638;7.528;2023-12-22T10:46:53;99525.38;;;6.72;100.00
55010;BME280;40903;51.638;7.528;2023-12-22T10:49:20;99520.47;;;6.74;100.00
55010;BME280;40903;51.638;7.528;2023-12-22T10:51:46;99520.69;;;6.77;100.00
55010;BME280;40903;51.638;7.528;2023-12-22T10:54:11;99527.22;;;6.76;100.00
55010;BME280;40903;51.638;7.528;2023-12-22T10:56:39;99535.03;;;6.78;100.00
55010;BME280;40903;51.638;7.528;2023-12-22T10:59:04;99540.97;;;6.80;100.00
55010;BME280;40903;51.638;7.528;2023-12-22T11:01:32;99528.22;;;6.80;100.00
55010;BME280;40903;51.638;7.528;2023-12-22T11:04:07;99534.94;;;6.83;100.00
55010;BME280;40903;51.638;7.528;2023-12-22T11:06:37;99525.16;;;6.87;100.00
55010;BME280;40903;51.638;7.528;2023-12-22T11:09:09;99505.00;;;6.93;100.00
55010;BME280;40903;51.638;7.528;2023-12-22T11:11:37;99508.72;;;6.97;100.00
55010;BME280;40903;51.638;7.528;2023-12-22T11:14:04;99495.97;;;6.97;100.00
55010;BME280;40903;51.638;7.528;2023-12-22T11:16:34;99494.00;;;7.03;100.00
55010;BME280;40903;51.638;7.528;2023-12-22T11:19:03;99493.81;;;7.13;100.00
55010;BME280;40903;51.638;7.528;2023-12-22T11:21:30;99510.28;;;7.16;100.00
55010;BME280;40903;51.638;7.528;2023-12-22T11:23:56;99502.66;;;7.18;100.00
55010;BME280;40903;51.638;7.528;2023-12-22T11:26:25;99498.66;;;7.16;100.00
55010;BME280;40903;51.638;7.528;2023-12-22T11:28:52;99485.28;;;7.19;100.00
55010;BME280;40903;51.638;7.528;2023-12-22T11:31:18;99486.59;;;7.22;100.00
55010;BME280;40903;51.638;7.528;2023-12-22T11:33:46;99483.91;;;7.22;100.00
55010;BME280;40903;51.638;7.528;2023-12-22T11:36:14;99485.22;;;7.24;100.00
55010;BME280;40903;51.638;7.528;2023-12-22T11:38:41;99478.97;;;7.24;100.00
55010;BME280;40903;51.638;7.528;2023-12-22T11:41:27;99483.91;;;7.22;100.00
55010;BME280;40903;51.638;7.528;2023-12-22T11:43:56;99488.00;;;7.19;100.00
55010;BME280;40903;51.638;7.528;2023-12-22T11:46:23;99478.75;;;7.20;100.00
55010;BME280;40903;51.638;7.528;2023-12-22T11:48:50;99477.69;;;7.21;100.00
55010;BME280;40903;51.638;7.528;2023-12-22T11:51:17;99499.56;;;7.25;100.00
55010;BME280;40903;51.638;7.528;2023-12-22T11:53:43;99498.28;;;7.22;100.00
55010;BME280;40903;51.638;7.528;2023-12-22T11:56:10;99497.47;;;7.22;100.00
55010;BME280;40903;51.638;7.528;2023-12-22T11:58:44;99486.91;;;7.20;100.00
55010;BME280;40903;51.638;7.528;2023-12-22T12:01:17;99476.88;;;7.21;100.00
55010;BME280;40903;51.638;7.528;2023-12-22T12:04:01;99467.34;;;7.23;100.00
55010;BME280;40903;51.638;7.528;2023-12-22T12:08:57;99479.47;;;7.26;100.00
55010;BME280;40903;51.638;7.528;2023-12-22T12:11:24;99481.09;;;7.27;100.00
55010;BME280;40903;51.638;7.528;2023-12-22T12:14:11;99489.81;;;7.24;100.00
55010;BME280;40903;51.638;7.528;2023-12-22T12:16:39;99492.25;;;7.25;100.00
55010;BME280;40903;51.638;7.528;2023-12-22T12:19:08;99481.41;;;7.25;100.00
55010;BME280;40903;51.638;7.528;2023-12-22T12:21:34;99496.25;;;7.28;100.00
55010;BME280;40903;51.638;7.528;2023-12-22T12:23:59;99503.00;;;7.30;100.00
55010;BME280;40903;51.638;7.528;2023-12-22T12:26:25;99501.09;;;7.31;100.00
55010;BME280;40903;51.638;7.528;2023-12-22T12:28:52;99508.13;;;7.32;100.00
55010;BME280;40903;51.638;7.528;2023-12-22T12:31:17;99504.59;;;7.31;100.00
55010;BME280;40903;51.638;7.528;2023-12-22T12:33:44;99504.31;;;7.33;100.00
55010;BME280;40903;51.638;7.528;2023-12-22T12:36:10;99501.28;;;7.34;100.00
55010;BME280;40903;51.638;7.528;2023-12-22T12:38:55;99504.00;;;7.34;100.00
55010;BME280;40903;51.638;7.528;2023-12-22T12:41:31;99489.06;;;7.37;100.00
55010;BME280;40903;51.638;7.528;2023-12-22T12:43:59;99486.63;;;7.35;100.00
55010;BME280;40903;51.638;7.528;2023-12-22T12:46:38;99483.13;;;7.35;100.00
55010;BME280;40903;51.638;7.528;2023-12-22T12:49:11;99477.28;;;7.28;100.00
55010;BME280;40903;51.638;7.528;2023-12-22T12:54:04;99473.75;;;7.14;100.00
55010;BME280;40903;51.638;7.528;2023-12-22T12:56:37;99483.56;;;7.10;100.00
55010;BME280;40903;51.638;7.528;2023-12-22T12:59:07;99480.78;;;7.15;100.00
55010;BME280;40903;51.638;7.528;2023-12-22T13:01:37;99482.19;;;7.12;100.00
55010;BME280;40903;51.638;7.528;2023-12-22T13:04:03;99479.19;;;7.14;100.00
55010;BME280;40903;51.638;7.528;2023-12-22T13:06:29;99477.03;;;7.11;100.00
55010;BME280;40903;51.638;7.528;2023-12-22T13:08:55;99475.94;;;7.12;100.00